SBCR

Details ICAO SBCR (CMG)
Name CORUMBA INTL
Region Brazil
Timezone America/Campo_Grande (UTC-3.0)
Plans Departing 11
Arriving 13
Stats Elevation 461 ft / 141 m (AMSL)
Location -19.011930° -57.673051°
Runways 1
Magnetic Variation 15.790° W
Sunrise 2017-12-16 09:09:43 UTC / 2017-12-16 06:09:43 Local
Sunset 2017-12-16 22:25:51 UTC / 2017-12-16 19:25:51 Local
Advertisement - Login to hide

Runways

ID Width Length Bearing (true) Bearing (mag) Surface Threshold Offset Overrun Length
09 148 ft / 45 m 6,567 ft / 2,002 m 74.62° 90.41° Asphalt 0 ft / 0 m 197 ft / 60 m
27 148 ft / 45 m 6,567 ft / 2,002 m 254.62° 270.41° Asphalt 0 ft / 0 m 197 ft / 60 m

Map

Weather


0- 5 10 15 20 25 30 35+ Temperature / ° C

Clouds and Precipitation
Forecast for 2017-12-16 12:00 UTC. Updated a few seconds ago

Ground ~20,000 ft ~40,000 ft Winds

METAR

SBCR 160900Z 30002KT CAVOK 25/24 Q1007

TAF

Not found

Frequencies

Tower 119.50 MHz RDO
Approach 119.50 MHz APP
Warning: Do not use this data for real-world aviation or navigation. No guarantee of current accuracy is given.